Time;durP1;ratioP1;P1;durP2;ratioP2;P2;SDS_P1;SDS_P2;PMS_P1;PMS_P2;Temp;Humidity;BMP_temperature;BMP_pressure;BME280_temperature;BME280_humidity;BME280_pressure;Samples;Min_cycle;Max_cycle;Signal;HPM_P1;HPM_P2
2021/11/20 00:00:44;;;;;;;;;;;;;;;16.07;61.79;101570.00;4983315;28;114613;-58
2021/11/20 00:03:10;;;;;;;;;;;;;;;16.08;61.99;101571.63;4983382;28;97810;-65
2021/11/20 00:05:38;;;;;;;;;;;;;;;16.07;61.87;101580.88;4983614;28;118095;-57
2021/11/20 00:08:05;;;;;;;;;;;;;;;16.07;62.05;101582.75;4983975;28;98258;-57
2021/11/20 00:10:32;;;;;;;;;;;;;;;16.07;61.83;101577.31;4965913;28;98024;-65
2021/11/20 00:12:58;;;;;;;;;;;;;;;16.07;62.08;101583.59;4997770;27;98016;-57
2021/11/20 00:15:27;;;;;;;;;;;;;;;16.07;61.99;101577.31;5002609;27;128053;-58
2021/11/20 00:17:54;;;;;;;;;;;;;;;16.07;62.09;101575.44;5003578;27;98036;-65
2021/11/20 00:20:20;;;;;;;;;;;;;;;16.07;62.04;101571.88;5002569;27;110223;-57
2021/11/20 00:22:47;;;;;;;;;;;;;;;16.06;61.76;101570.25;5004134;27;98011;-58
2021/11/20 00:25:20;;;;;;;;;;;;;;;16.07;62.03;101569.16;5003235;27;100147;-65
2021/11/20 00:27:47;;;;;;;;;;;;;;;16.07;61.87;101577.31;5003025;27;98545;-58
2021/11/20 00:30:16;;;;;;;;;;;;;;;16.07;62.02;101569.16;5002527;27;113132;-57
2021/11/20 00:32:48;;;;;;;;;;;;;;;16.07;62.23;101561.00;5003833;27;98198;-58
2021/11/20 00:35:30;;;;;;;;;;;;;;;16.06;61.81;101571.06;4984436;27;98564;-57
2021/11/20 00:37:56;;;;;;;;;;;;;;;16.07;61.91;101571.88;5003154;27;97750;-64
2021/11/20 00:40:27;;;;;;;;;;;;;;;16.07;61.96;101570.00;5002382;27;125507;-58
2021/11/20 00:42:52;;;;;;;;;;;;;;;16.06;61.80;101570.25;5002372;27;98023;-58
2021/11/20 00:45:18;;;;;;;;;;;;;;;16.07;62.03;101574.59;5001586;27;129624;-58
2021/11/20 00:47:44;;;;;;;;;;;;;;;16.06;61.87;101573.78;5003172;27;116308;-57
2021/11/20 00:50:13;;;;;;;;;;;;;;;16.07;62.10;101575.44;5002047;27;128882;-57
2021/11/20 00:52:40;;;;;;;;;;;;;;;16.06;61.89;101576.50;4985420;27;97777;-58
2021/11/20 00:55:07;;;;;;;;;;;;;;;16.07;61.94;101578.16;5002971;27;98249;-58
2021/11/20 00:57:33;;;;;;;;;;;;;;;16.06;61.79;101568.34;4981002;28;98512;-57
2021/11/20 00:59:59;;;;;;;;;;;;;;;16.07;61.96;101561.00;5003256;27;98020;-58
2021/11/20 01:02:25;;;;;;;;;;;;;;;16.06;62.05;101553.94;5004610;27;97906;-66
2021/11/20 01:04:51;;;;;;;;;;;;;;;16.05;61.97;101550.41;5002445;27;99318;-66
2021/11/20 01:07:17;;;;;;;;;;;;;;;16.06;61.67;101562.09;4997310;27;100214;-65
2021/11/20 01:09:44;;;;;;;;;;;;;;;16.05;62.00;101565.91;4999770;27;99794;-65
2021/11/20 01:12:13;;;;;;;;;;;;;;;16.05;61.98;101568.66;5003277;27;98024;-64
2021/11/20 01:14:40;;;;;;;;;;;;;;;16.04;61.93;101572.47;5002917;27;99008;-65
2021/11/20 01:17:06;;;;;;;;;;;;;;;16.04;62.00;101576.00;5003132;27;98470;-65
2021/11/20 01:19:32;;;;;;;;;;;;;;;16.05;62.00;101585.78;4984514;27;98100;-57
2021/11/20 01:21:59;;;;;;;;;;;;;;;16.05;61.61;101583.06;5001809;27;97825;-58
2021/11/20 01:24:25;;;;;;;;;;;;;;;16.05;61.98;101574.88;5001152;27;118246;-58
2021/11/20 01:26:53;;;;;;;;;;;;;;;16.05;62.17;101574.88;5002799;27;98973;-65
2021/11/20 01:29:19;;;;;;;;;;;;;;;16.06;61.88;101578.41;4985358;27;97848;-57
2021/11/20 01:31:46;;;;;;;;;;;;;;;16.05;62.00;101572.16;5002876;27;97941;-57
2021/11/20 01:34:13;;;;;;;;;;;;;;;16.05;61.89;101565.91;5001519;27;98793;-59
2021/11/20 01:36:39;;;;;;;;;;;;;;;16.05;61.75;101574.09;5002905;27;97993;-58
2021/11/20 01:39:08;;;;;;;;;;;;;;;16.05;61.78;101574.88;5002384;27;98087;-58
2021/11/20 01:41:34;;;;;;;;;;;;;;;16.06;61.99;101578.41;5002268;27;101001;-57
2021/11/20 01:44:17;;;;;;;;;;;;;;;16.05;62.05;101571.38;5003686;27;98646;-65
2021/11/20 01:46:46;;;;;;;;;;;;;;;16.06;61.80;101586.56;5002457;27;105280;-58
2021/11/20 01:49:15;;;;;;;;;;;;;;;16.06;62.00;101575.69;5002300;27;113309;-66
2021/11/20 01:51:50;;;;;;;;;;;;;;;16.06;61.87;101572.97;5002685;27;97980;-57
2021/11/20 01:54:43;;;;;;;;;;;;;;;16.07;62.09;101574.59;5003734;27;98109;-58
2021/11/20 01:57:15;;;;;;;;;;;;;;;16.07;61.95;101569.16;4983208;28;99308;-58
2021/11/20 01:59:59;;;;;;;;;;;;;;;16.07;61.87;101566.44;4987722;27;97776;-58
2021/11/20 02:02:41;;;;;;;;;;;;;;;16.07;61.90;101571.88;4971615;27;103138;-58
2021/11/20 02:05:27;;;;;;;;;;;;;;;16.07;61.76;101571.88;4988680;27;98905;-58
2021/11/20 02:08:06;;;;;;;;;;;;;;;16.08;61.90;101565.38;4986260;27;98949;-58
2021/11/20 02:10:46;;;;;;;;;;;;;;;16.07;61.87;101559.13;4986654;27;98141;-65
2021/11/20 02:13:18;;;;;;;;;;;;;;;16.07;61.88;101564.56;4999451;27;97980;-65
2021/11/20 02:16:15;;;;;;;;;;;;;;;16.07;62.18;101564.56;5005736;27;98120;-58
2021/11/20 02:18:45;;;;;;;;;;;;;;;16.08;61.78;101568.91;5005496;27;98781;-58
2021/11/20 02:21:15;;;;;;;;;;;;;;;16.08;62.08;101554.50;5005192;27;98572;-58
2021/11/20 02:23:41;;;;;;;;;;;;;;;16.07;61.84;101561.84;4987201;27;98206;-58
2021/11/20 02:26:07;;;;;;;;;;;;;;;16.08;62.02;101557.22;5005266;27;98549;-65
2021/11/20 02:28:33;;;;;;;;;;;;;;;16.08;62.00;101560.75;5005608;27;97977;-62
2021/11/20 02:31:01;;;;;;;;;;;;;;;16.08;61.95;101559.94;5004618;27;97886;-65
2021/11/20 02:33:34;;;;;;;;;;;;;;;16.08;61.86;101552.59;5005903;27;98016;-65
2021/11/20 02:36:08;;;;;;;;;;;;;;;16.08;61.86;101557.22;5005205;27;97955;-58
2021/11/20 02:38:54;;;;;;;;;;;;;;;16.08;61.97;101554.50;5005230;27;98923;-65
2021/11/20 02:41:20;;;;;;;;;;;;;;;16.08;61.97;101540.91;5004576;27;114370;-65
2021/11/20 02:43:51;;;;;;;;;;;;;;;16.08;61.85;101549.06;5004972;27;97844;-58
2021/11/20 02:46:19;;;;;;;;;;;;;;;16.08;62.02;101549.06;5004592;27;118836;-57
2021/11/20 02:48:45;;;;;;;;;;;;;;;16.09;62.08;101550.69;5005064;27;97868;-58
2021/11/20 02:51:13;;;;;;;;;;;;;;;16.07;61.91;101550.97;4985007;27;126558;-57
2021/11/20 02:53:44;;;;;;;;;;;;;;;16.07;61.99;101550.13;5005127;27;97683;-65
2021/11/20 02:56:12;;;;;;;;;;;;;;;16.09;62.08;101550.69;5005045;27;99368;-58
2021/11/20 02:58:39;;;;;;;;;;;;;;;16.08;62.00;101544.44;5004376;27;120541;-65
2021/11/20 03:01:10;;;;;;;;;;;;;;;16.09;61.97;101545.25;5005118;27;97736;-58
2021/11/20 03:03:35;;;;;;;;;;;;;;;16.09;62.02;101537.09;5004383;27;99133;-57
2021/11/20 03:06:02;;;;;;;;;;;;;;;16.08;62.27;101539.00;5003572;27;127565;-65
2021/11/20 03:08:27;;;;;;;;;;;;;;;16.09;62.01;101537.09;5004949;27;97930;-58
2021/11/20 03:10:53;;;;;;;;;;;;;;;16.08;62.05;101538.19;5004002;27;126780;-57
2021/11/20 03:13:19;;;;;;;;;;;;;;;16.07;62.08;101529.22;5002966;27;113967;-58
2021/11/20 03:15:45;;;;;;;;;;;;;;;16.08;61.95;101535.47;5004161;27;127870;-57
2021/11/20 03:18:11;;;;;;;;;;;;;;;16.08;62.08;101532.75;5002871;27;127004;-58
2021/11/20 03:20:37;;;;;;;;;;;;;;;16.08;62.03;101527.31;5004505;27;97810;-65
2021/11/20 03:23:10;;;;;;;;;;;;;;;16.08;62.06;101530.03;4985469;27;99250;-65
2021/11/20 03:25:36;;;;;;;;;;;;;;;16.06;62.03;101524.03;5005165;27;98163;-65
2021/11/20 03:28:02;;;;;;;;;;;;;;;16.07;62.10;101526.50;5002916;27;127424;-57
2021/11/20 03:30:28;;;;;;;;;;;;;;;16.06;62.11;101530.28;5003224;27;97862;-59
2021/11/20 03:32:54;;;;;;;;;;;;;;;16.06;62.00;101529.47;5005517;27;97927;-65
2021/11/20 03:35:20;;;;;;;;;;;;;;;16.06;62.18;101532.19;5003805;27;98743;-57
2021/11/20 03:37:46;;;;;;;;;;;;;;;16.06;62.11;101534.91;5002901;27;128866;-58
2021/11/20 03:40:12;;;;;;;;;;;;;;;16.04;62.22;101528.94;5004299;27;97983;-65
2021/11/20 03:42:38;;;;;;;;;;;;;;;16.04;62.04;101526.22;4986644;27;97994;-65
2021/11/20 03:45:05;;;;;;;;;;;;;;;16.02;62.33;101523.78;4967766;27;117969;-65
2021/11/20 03:47:31;;;;;;;;;;;;;;;16.03;62.43;101525.41;5003798;27;99100;-64
2021/11/20 03:49:57;;;;;;;;;;;;;;;16.02;62.20;101534.66;5003969;27;98180;-57
2021/11/20 03:52:24;;;;;;;;;;;;;;;16.02;61.91;101531.94;5003123;27;112317;-65
2021/11/20 03:54:50;;;;;;;;;;;;;;;16.02;62.26;101529.22;5003989;27;99101;-65
2021/11/20 03:57:16;;;;;;;;;;;;;;;16.01;62.12;101530.31;5002992;27;125707;-65
2021/11/20 03:59:42;;;;;;;;;;;;;;;16.02;62.29;101531.13;5003311;27;119053;-58
2021/11/20 04:02:08;;;;;;;;;;;;;;;16.01;62.18;101530.31;5003109;27;112525;-65
2021/11/20 04:04:34;;;;;;;;;;;;;;;16.00;62.21;101539.56;5003441;27;118019;-58
2021/11/20 04:07:02;;;;;;;;;;;;;;;16.00;62.15;101536.84;5004068;27;99188;-65
2021/11/20 04:09:28;;;;;;;;;;;;;;;16.00;62.39;101531.41;5004609;27;97756;-65
2021/11/20 04:11:54;;;;;;;;;;;;;;;16.00;62.46;101530.59;5003522;27;107294;-58
2021/11/20 04:14:21;;;;;;;;;;;;;;;16.01;62.25;101527.59;5002582;27;129068;-58
2021/11/20 04:16:47;;;;;;;;;;;;;;;16.00;62.25;101527.88;5002407;27;98181;-64
2021/11/20 04:19:13;;;;;;;;;;;;;;;15.99;62.35;101532.47;5003972;27;97897;-57
2021/11/20 04:21:39;;;;;;;;;;;;;;;16.01;62.33;101526.78;5003830;27;113050;-57
2021/11/20 04:24:05;;;;;;;;;;;;;;;15.99;62.36;101532.47;5002974;27;128780;-58
2021/11/20 04:26:31;;;;;;;;;;;;;;;16.00;62.35;101530.59;5004439;27;98341;-63
2021/11/20 04:28:57;;;;;;;;;;;;;;;16.00;62.11;101525.97;5003379;27;98001;-58
2021/11/20 04:31:23;;;;;;;;;;;;;;;16.00;62.34;101527.88;5003504;27;97794;-65
2021/11/20 04:33:50;;;;;;;;;;;;;;;16.00;62.56;101536.84;4982186;27;113151;-65
2021/11/20 04:36:16;;;;;;;;;;;;;;;15.99;62.39;101537.09;5003378;27;98247;-58
2021/11/20 04:38:42;;;;;;;;;;;;;;;15.99;62.48;101532.47;4993221;27;106396;-62
2021/11/20 04:41:08;;;;;;;;;;;;;;;16.00;62.58;101536.03;5004334;27;97832;-62
2021/11/20 04:43:34;;;;;;;;;;;;;;;15.99;62.57;101535.19;5002256;27;102173;-65
2021/11/20 04:45:59;;;;;;;;;;;;;;;15.99;62.49;101527.03;5003250;27;113550;-58
2021/11/20 04:48:25;;;;;;;;;;;;;;;15.99;62.34;101524.31;4992830;27;128614;-58
2021/11/20 04:50:53;;;;;;;;;;;;;;;15.99;62.48;101521.59;5003825;27;97674;-57
2021/11/20 04:53:19;;;;;;;;;;;;;;;15.99;62.49;101521.59;5002193;27;114132;-64
2021/11/20 04:55:45;;;;;;;;;;;;;;;15.99;62.44;101523.50;4984618;27;98017;-58
2021/11/20 04:58:10;;;;;;;;;;;;;;;15.97;62.51;101528.44;4993453;27;129090;-66
2021/11/20 05:00:42;;;;;;;;;;;;;;;15.99;62.26;101531.66;4984565;27;112339;-66
2021/11/20 05:03:08;;;;;;;;;;;;;;;15.98;62.46;101530.84;4984549;27;97676;-65
2021/11/20 05:05:35;;;;;;;;;;;;;;;15.99;62.40;101531.66;4983615;27;113340;-58
2021/11/20 05:08:02;;;;;;;;;;;;;;;15.98;62.71;101528.13;4983756;27;98317;-65
2021/11/20 05:10:28;;;;;;;;;;;;;;;15.98;62.56;101533.56;5003086;27;97999;-58
2021/11/20 05:12:53;;;;;;;;;;;;;;;15.99;62.69;101535.19;5002527;27;98451;-58
2021/11/20 05:15:19;;;;;;;;;;;;;;;15.98;62.69;101530.84;5001864;27;128159;-59
2021/11/20 05:17:45;;;;;;;;;;;;;;;15.98;62.58;101530.84;4981124;27;126359;-58
2021/11/20 05:20:11;;;;;;;;;;;;;;;15.98;62.69;101532.78;5004644;27;98050;-58
2021/11/20 05:22:37;;;;;;;;;;;;;;;15.98;62.80;101532.78;5002946;27;98366;-57
2021/11/20 05:25:04;;;;;;;;;;;;;;;15.99;62.69;101531.66;5003361;27;99900;-65
2021/11/20 05:27:30;;;;;;;;;;;;;;;15.98;62.82;101527.34;4994730;27;109030;-65
2021/11/20 05:32:24;;;;;;;;;;;;;;;15.97;62.82;101531.97;5000005;27;98215;-58
2021/11/20 05:34:50;;;;;;;;;;;;;;;15.97;62.67;101536.59;5001665;27;126782;-65
2021/11/20 05:37:19;;;;;;;;;;;;;;;15.97;62.70;101540.13;4996843;27;118180;-65
2021/11/20 05:39:45;;;;;;;;;;;;;;;15.97;62.89;101547.47;5000606;27;110668;-65
2021/11/20 05:42:11;;;;;;;;;;;;;;;15.95;62.77;101540.41;5001102;27;127638;-65
2021/11/20 05:44:37;;;;;;;;;;;;;;;15.96;62.72;101533.06;4983557;27;108431;-65
2021/11/20 05:47:03;;;;;;;;;;;;;;;15.96;62.74;101535.78;4999111;27;97948;-65
2021/11/20 05:49:34;;;;;;;;;;;;;;;15.95;62.82;101536.84;4980541;28;108777;-65
2021/11/20 05:52:01;;;;;;;;;;;;;;;15.94;62.80;101538.75;5001538;27;115867;-66
2021/11/20 05:54:27;;;;;;;;;;;;;;;15.95;62.61;101531.41;5001868;27;99539;-65
2021/11/20 05:56:54;;;;;;;;;;;;;;;15.96;62.54;101535.78;5000451;27;98516;-65
2021/11/20 05:59:19;;;;;;;;;;;;;;;15.95;62.77;101526.81;4997500;27;97684;-65
2021/11/20 06:01:46;;;;;;;;;;;;;;;15.95;62.71;101532.25;5002934;27;98885;-65
2021/11/20 06:04:13;;;;;;;;;;;;;;;15.92;62.97;101524.63;5002043;27;98093;-65
2021/11/20 06:06:39;;;;;;;;;;;;;;;15.94;62.73;101527.06;5001296;27;116785;-65
2021/11/20 06:09:05;;;;;;;;;;;;;;;15.94;62.90;101525.16;4995072;27;97754;-65
2021/11/20 06:11:30;;;;;;;;;;;;;;;15.93;62.85;101528.16;5001497;27;98476;-65
2021/11/20 06:13:56;;;;;;;;;;;;;;;15.92;62.71;101532.78;5000489;27;124656;-65
2021/11/20 06:16:22;;;;;;;;;;;;;;;15.93;62.84;101541.75;5002407;27;124802;-65
2021/11/20 06:18:48;;;;;;;;;;;;;;;15.92;62.61;101535.50;4993750;27;111330;-66
2021/11/20 06:21:14;;;;;;;;;;;;;;;15.92;62.84;101537.41;5003607;27;98376;-65
2021/11/20 06:23:40;;;;;;;;;;;;;;;15.92;62.80;101543.66;5001636;27;98393;-65
2021/11/20 06:26:07;;;;;;;;;;;;;;;15.92;62.88;101548.31;5002702;27;98070;-65
2021/11/20 06:28:33;;;;;;;;;;;;;;;15.93;62.92;101550.72;4994260;27;102464;-65
2021/11/20 06:30:59;;;;;;;;;;;;;;;15.92;62.91;101551.81;5001653;27;117961;-65
2021/11/20 06:33:25;;;;;;;;;;;;;;;15.92;62.96;101554.53;5002022;27;98770;-66
2021/11/20 06:35:51;;;;;;;;;;;;;;;15.92;62.80;101559.19;5001344;27;115013;-65
2021/11/20 06:38:18;;;;;;;;;;;;;;;15.92;62.91;101562.69;4989785;27;113472;-65
2021/11/20 06:40:45;;;;;;;;;;;;;;;15.92;62.97;101565.41;5000423;27;99080;-66
2021/11/20 06:43:13;;;;;;;;;;;;;;;15.91;62.83;101562.97;5002364;27;98667;-65
2021/11/20 06:45:44;;;;;;;;;;;;;;;15.92;62.99;101570.84;5002678;27;98168;-65
2021/11/20 06:48:10;;;;;;;;;;;;;;;15.90;62.78;101570.31;4994814;27;97817;-65
2021/11/20 06:50:37;;;;;;;;;;;;;;;15.91;62.94;101561.06;4982992;27;99229;-65
2021/11/20 06:53:04;;;;;;;;;;;;;;;15.91;63.00;101562.97;4982869;27;116963;-65
2021/11/20 06:55:31;;;;;;;;;;;;;;;15.91;63.22;101558.34;5001720;27;112931;-65
2021/11/20 06:58:08;;;;;;;;;;;;;;;15.91;62.82;101569.22;4994063;27;99013;-65
2021/11/20 07:00:35;;;;;;;;;;;;;;;15.90;63.04;101559.44;5002138;27;98435;-65
2021/11/20 07:03:13;;;;;;;;;;;;;;;15.92;63.30;101564.63;4983552;27;98275;-65
2021/11/20 07:05:49;;;;;;;;;;;;;;;15.93;62.98;101563.50;4999286;27;98728;-65
2021/11/20 07:08:15;;;;;;;;;;;;;;;15.92;63.27;101559.97;4994424;27;97968;-65
2021/11/20 07:10:42;;;;;;;;;;;;;;;15.92;63.13;101562.69;5003227;27;98206;-65
2021/11/20 07:13:09;;;;;;;;;;;;;;;15.93;63.14;101571.66;5002673;27;98857;-65
2021/11/20 07:15:34;;;;;;;;;;;;;;;15.95;63.15;101558.59;5000947;27;122347;-65
2021/11/20 07:18:01;;;;;;;;;;;;;;;15.97;62.91;101561.06;4994191;27;97916;-65
2021/11/20 07:20:29;;;;;;;;;;;;;;;15.98;63.07;101560.78;4983298;27;99382;-65
2021/11/20 07:22:55;;;;;;;;;;;;;;;15.98;62.87;101558.06;5005555;27;107206;-65
2021/11/20 07:25:22;;;;;;;;;;;;;;;16.00;63.21;101560.50;5001703;27;98029;-65
2021/11/20 07:27:48;;;;;;;;;;;;;;;16.01;62.94;101562.13;4993357;27;99434;-65
2021/11/20 07:30:14;;;;;;;;;;;;;;;16.01;63.17;101556.69;5001219;27;127599;-65
2021/11/20 07:32:41;;;;;;;;;;;;;;;16.04;63.14;101556.16;5001469;27;98924;-64
2021/11/20 07:35:07;;;;;;;;;;;;;;;16.04;62.99;101554.22;4983329;27;98137;-65
2021/11/20 07:37:33;;;;;;;;;;;;;;;16.04;62.90;101545.28;4994188;27;98310;-65
2021/11/20 07:39:59;;;;;;;;;;;;;;;16.06;63.32;101551.22;5000172;27;128202;-65
2021/11/20 07:42:25;;;;;;;;;;;;;;;16.06;62.94;101552.03;5001723;27;99087;-66
2021/11/20 07:44:51;;;;;;;;;;;;;;;16.08;63.11;101540.91;4993663;27;98049;-65
2021/11/20 07:47:17;;;;;;;;;;;;;;;16.09;62.97;101547.97;4995807;27;113587;-65
2021/11/20 07:49:43;;;;;;;;;;;;;;;16.09;63.00;101545.25;4999604;27;111086;-65
2021/11/20 07:52:12;;;;;;;;;;;;;;;16.11;63.21;101546.59;5001673;27;98009;-64
2021/11/20 07:54:39;;;;;;;;;;;;;;;16.11;62.96;101540.31;5000723;27;118087;-65
2021/11/20 07:57:05;;;;;;;;;;;;;;;16.12;63.04;101541.97;4997756;27;97905;-65
2021/11/20 07:59:31;;;;;;;;;;;;;;;16.14;63.03;101537.84;4998257;27;98389;-65
2021/11/20 08:01:57;;;;;;;;;;;;;;;16.15;63.06;101544.09;5002172;27;98581;-65
2021/11/20 08:04:23;;;;;;;;;;;;;;;16.15;63.19;101541.38;5001060;27;127050;-64
2021/11/20 08:06:49;;;;;;;;;;;;;;;16.16;63.20;101534.88;4999517;27;113142;-65
2021/11/20 08:09:15;;;;;;;;;;;;;;;16.17;63.22;101539.22;4995194;27;98413;-65
2021/11/20 08:11:41;;;;;;;;;;;;;;;16.18;63.22;101528.03;5001224;27;123491;-65
2021/11/20 08:14:07;;;;;;;;;;;;;;;16.21;63.24;101537.56;5000547;27;116056;-58
2021/11/20 08:16:34;;;;;;;;;;;;;;;16.22;63.52;101539.19;5001175;27;97944;-65
2021/11/20 08:19:00;;;;;;;;;;;;;;;16.23;63.24;101531.84;4993463;27;98290;-65
2021/11/20 08:21:27;;;;;;;;;;;;;;;16.24;63.18;101536.22;4966753;27;99099;-65
2021/11/20 08:23:53;;;;;;;;;;;;;;;16.24;63.27;101531.56;5000363;27;97917;-65
2021/11/20 08:26:19;;;;;;;;;;;;;;;16.25;63.32;101524.22;5000831;27;104632;-65
2021/11/20 08:28:46;;;;;;;;;;;;;;;16.24;63.21;101522.59;4993497;27;97742;-57
2021/11/20 08:31:12;;;;;;;;;;;;;;;16.24;63.34;101522.59;4998583;27;98849;-57
2021/11/20 08:33:38;;;;;;;;;;;;;;;16.22;63.62;101520.16;4998765;27;128250;-65
2021/11/20 08:36:09;;;;;;;;;;;;;;;16.23;63.33;101521.78;5001078;27;97794;-58
2021/11/20 08:38:35;;;;;;;;;;;;;;;16.22;63.57;101514.72;4991942;27;98853;-57
2021/11/20 08:41:01;;;;;;;;;;;;;;;16.24;63.41;101519.88;4980766;27;127730;-57
2021/11/20 08:43:30;;;;;;;;;;;;;;;16.24;63.59;101514.44;4998866;27;127407;-57
2021/11/20 08:45:57;;;;;;;;;;;;;;;16.25;63.54;101510.63;5001044;27;97991;-65
2021/11/20 08:48:23;;;;;;;;;;;;;;;16.26;63.31;101515.78;4991294;27;124983;-57
2021/11/20 08:50:55;;;;;;;;;;;;;;;16.27;63.72;101506.53;5000247;27;98343;-57
2021/11/20 08:53:21;;;;;;;;;;;;;;;16.29;63.38;101512.50;5000054;27;98226;-57
2021/11/20 08:55:47;;;;;;;;;;;;;;;16.31;63.42;101510.31;5001031;27;98278;-58
2021/11/20 08:58:13;;;;;;;;;;;;;;;16.31;63.66;101513.03;4983056;27;99078;-58
2021/11/20 09:00:43;;;;;;;;;;;;;;;16.32;63.59;101503.78;5000547;27;98577;-65
2021/11/20 09:03:17;;;;;;;;;;;;;;;16.33;63.51;101513.56;4999876;27;98275;-65
2021/11/20 09:06:04;;;;;;;;;;;;;;;16.34;63.44;101506.22;4993883;27;97801;-66
2021/11/20 09:08:52;;;;;;;;;;;;;;;16.37;63.65;101508.38;4985655;27;110047;-65
2021/11/20 09:11:22;;;;;;;;;;;;;;;16.38;63.50;101508.09;4994297;27;121807;-65
2021/11/20 09:14:01;;;;;;;;;;;;;;;16.41;63.36;101510.25;5000732;27;98105;-64
2021/11/20 09:16:27;;;;;;;;;;;;;;;16.43;63.59;101508.06;4982178;27;98118;-57
2021/11/20 09:18:57;;;;;;;;;;;;;;;16.45;63.43;101505.06;4992239;27;99058;-58
2021/11/20 09:21:23;;;;;;;;;;;;;;;16.47;63.57;101502.06;4999944;27;98597;-58
2021/11/20 09:23:49;;;;;;;;;;;;;;;16.49;63.38;101497.97;4998990;27;98312;-65
2021/11/20 09:26:15;;;;;;;;;;;;;;;16.50;63.60;101488.69;5000432;27;98452;-65
2021/11/20 09:28:41;;;;;;;;;;;;;;;16.53;63.49;101493.56;4990975;27;116967;-66
2021/11/20 09:31:07;;;;;;;;;;;;;;;16.54;63.68;101495.19;4999424;27;125306;-58
2021/11/20 09:33:33;;;;;;;;;;;;;;;16.54;63.58;101488.94;4998887;27;127577;-65
2021/11/20 09:35:59;;;;;;;;;;;;;;;16.56;63.59;101484.03;5000192;27;97879;-57
2021/11/20 09:38:26;;;;;;;;;;;;;;;16.60;63.47;101480.47;4991768;27;99034;-58
2021/11/20 09:41:00;;;;;;;;;;;;;;;16.65;63.42;101479.63;5000990;27;98194;-65
2021/11/20 09:43:29;;;;;;;;;;;;;;;16.71;63.40;101475.78;4981708;27;97920;-58
2021/11/20 09:46:02;;;;;;;;;;;;;;;16.77;63.25;101476.56;4980534;27;98183;-62
2021/11/20 09:48:34;;;;;;;;;;;;;;;16.80;63.36;101473.28;4992066;27;101858;-65
2021/11/20 09:51:21;;;;;;;;;;;;;;;16.83;63.26;101465.34;4981119;27;98244;-65
2021/11/20 09:53:47;;;;;;;;;;;;;;;16.85;63.35;101463.13;5001111;27;105195;-65
2021/11/20 09:56:21;;;;;;;;;;;;;;;16.86;63.40;101456.63;5000046;27;112434;-58
2021/11/20 09:59:04;;;;;;;;;;;;;;;16.93;63.27;101457.06;4973957;27;98027;-65
2021/11/20 10:01:57;;;;;;;;;;;;;;;16.96;63.33;101461.16;4999724;27;98696;-58
2021/11/20 10:04:27;;;;;;;;;;;;;;;16.98;63.42;101441.78;4973680;27;98727;-58
2021/11/20 10:07:22;;;;;;;;;;;;;;;16.99;63.51;101448.88;4997265;27;97946;-65
2021/11/20 10:09:50;;;;;;;;;;;;;;;17.00;63.43;101447.78;4996520;27;118690;-65
2021/11/20 10:12:32;;;;;;;;;;;;;;;16.97;63.55;101438.25;4999163;27;98553;-58
2021/11/20 10:15:14;;;;;;;;;;;;;;;16.96;63.45;101442.09;4999310;27;98330;-65
2021/11/20 10:17:49;;;;;;;;;;;;;;;16.96;63.68;101436.66;4973176;27;98195;-65
2021/11/20 10:20:33;;;;;;;;;;;;;;;16.95;63.62;101434.22;5002334;27;100393;-65
2021/11/20 10:23:04;;;;;;;;;;;;;;;16.95;63.79;101428.78;4999315;27;99842;-58
2021/11/20 10:25:49;;;;;;;;;;;;;;;16.96;63.68;101430.38;4983672;27;98656;-58
2021/11/20 10:28:53;;;;;;;;;;;;;;;16.98;63.33;101423.56;4969944;27;97902;-65
2021/11/20 10:31:21;;;;;;;;;;;;;;;17.01;63.61;101424.88;4998526;27;98549;-58
2021/11/20 10:33:59;;;;;;;;;;;;;;;17.05;63.44;101417.75;5002470;27;98994;-58
2021/11/20 10:36:35;;;;;;;;;;;;;;;17.08;63.53;101411.75;5002454;27;98078;-58
2021/11/20 10:39:17;;;;;;;;;;;;;;;17.12;63.49;101412.78;4993680;27;98432;-57
2021/11/20 10:41:54;;;;;;;;;;;;;;;17.15;63.43;101404.84;5001169;27;98439;-58
2021/11/20 10:44:24;;;;;;;;;;;;;;;17.18;63.48;101406.22;5001509;27;98730;-58
2021/11/20 10:47:15;;;;;;;;;;;;;;;17.22;63.52;101401.00;5000005;27;98134;-57
2021/11/20 10:50:02;;;;;;;;;;;;;;;17.27;63.35;101406.38;4990361;27;97901;-58
2021/11/20 10:52:47;;;;;;;;;;;;;;;17.28;63.39;101403.34;5001117;27;98534;-58
2021/11/20 10:55:19;;;;;;;;;;;;;;;17.29;63.43;101402.28;5000532;27;99096;-58
2021/11/20 10:57:54;;;;;;;;;;;;;;;17.28;63.52;101399.81;4993740;27;97901;-58
2021/11/20 11:00:54;;;;;;;;;;;;;;;17.28;63.39;101400.63;4984459;27;98051;-58
2021/11/20 11:03:33;;;;;;;;;;;;;;;17.28;63.41;101386.19;4983534;27;117893;-57
2021/11/20 11:06:22;;;;;;;;;;;;;;;17.27;63.60;101384.59;4976410;27;98066;-65
2021/11/20 11:09:01;;;;;;;;;;;;;;;17.25;63.74;101384.03;4988601;27;98025;-58
2021/11/20 11:11:33;;;;;;;;;;;;;;;17.23;63.69;101375.38;4978659;27;98023;-58
2021/11/20 11:14:01;;;;;;;;;;;;;;;17.23;63.66;101375.38;4967273;27;98655;-58
2021/11/20 11:16:32;;;;;;;;;;;;;;;17.24;63.62;101371.53;5001488;27;98326;-66
2021/11/20 11:19:13;;;;;;;;;;;;;;;17.23;63.86;101369.91;5000788;27;98049;-65
2021/11/20 11:21:55;;;;;;;;;;;;;;;17.24;63.78;101366.09;4996700;27;98072;-65
2021/11/20 11:24:47;;;;;;;;;;;;;;;17.25;63.62;101364.97;4974550;28;98909;-65
2021/11/20 11:27:19;;;;;;;;;;;;;;;17.23;63.63;101357.09;4978221;27;99333;-65
2021/11/20 11:30:08;;;;;;;;;;;;;;;17.26;63.72;101353.00;4972814;27;113096;-58
2021/11/20 11:32:35;;;;;;;;;;;;;;;17.26;63.76;101350.28;4984612;27;98017;-66
2021/11/20 11:35:15;;;;;;;;;;;;;;;17.26;63.71;101359.25;5000975;27;98871;-58
2021/11/20 11:38:04;;;;;;;;;;;;;;;17.26;63.71;101336.66;4971630;27;98807;-58
2021/11/20 11:40:48;;;;;;;;;;;;;;;17.25;63.84;101346.75;4982504;27;111166;-58
2021/11/20 11:43:19;;;;;;;;;;;;;;;17.24;63.85;101344.28;4981763;27;106775;-65
2021/11/20 11:45:48;;;;;;;;;;;;;;;17.23;63.77;101346.19;4983090;27;98199;-65
2021/11/20 11:48:26;;;;;;;;;;;;;;;17.21;63.76;101345.66;4992983;27;98367;-58
2021/11/20 11:51:18;;;;;;;;;;;;;;;17.16;63.72;101338.38;5001597;27;98457;-65
2021/11/20 11:54:06;;;;;;;;;;;;;;;17.12;63.89;101326.44;4980584;27;97843;-65
2021/11/20 11:56:35;;;;;;;;;;;;;;;17.12;63.83;101325.63;4977801;27;103016;-65
2021/11/20 11:59:21;;;;;;;;;;;;;;;17.14;63.80;101328.88;4999305;27;98147;-58
2021/11/20 12:02:14;;;;;;;;;;;;;;;17.17;63.57;101325.56;4993616;27;97842;-58
2021/11/20 12:04:42;;;;;;;;;;;;;;;17.18;63.58;101317.13;4994997;27;98431;-58
2021/11/20 12:07:54;;;;;;;;;;;;;;;17.20;63.60;101322.25;5000516;27;98664;-58
2021/11/20 12:10:23;;;;;;;;;;;;;;;17.24;63.62;101308.88;4966975;27;98399;-58
2021/11/20 12:13:03;;;;;;;;;;;;;;;17.27;63.62;101295.47;4994111;27;98238;-58
2021/11/20 12:15:48;;;;;;;;;;;;;;;17.29;63.46;101297.91;5001386;27;97793;-58
2021/11/20 12:18:40;;;;;;;;;;;;;;;17.30;63.47;101292.19;4999538;27;99138;-65
2021/11/20 12:21:18;;;;;;;;;;;;;;;17.32;63.58;101287.22;4963243;27;98858;-65
2021/11/20 12:23:57;;;;;;;;;;;;;;;17.33;63.41;101277.97;5000285;27;97904;-58
2021/11/20 12:26:36;;;;;;;;;;;;;;;17.34;63.49;101268.69;4982234;27;101407;-65
2021/11/20 12:29:18;;;;;;;;;;;;;;;17.34;63.47;101265.97;4982445;27;98404;-57
2021/11/20 12:32:21;;;;;;;;;;;;;;;17.34;63.63;101270.59;5000468;27;98590;-65
2021/11/20 12:35:11;;;;;;;;;;;;;;;17.33;63.56;101252.63;4968025;27;116282;-65
2021/11/20 12:37:48;;;;;;;;;;;;;;;17.29;63.75;101246.13;4993043;27;98077;-66
2021/11/20 12:40:36;;;;;;;;;;;;;;;17.26;63.65;101253.00;4981048;27;98528;-58
2021/11/20 12:43:20;;;;;;;;;;;;;;;17.25;63.78;101235.03;5000423;27;98566;-65
2021/11/20 12:46:13;;;;;;;;;;;;;;;17.25;63.77;101235.03;4999811;27;98552;-58
2021/11/20 12:48:42;;;;;;;;;;;;;;;17.26;63.54;101227.69;4975070;27;98080;-58
2021/11/20 12:51:45;;;;;;;;;;;;;;;17.25;63.69;101226.03;5000335;27;98964;-65
2021/11/20 12:54:26;;;;;;;;;;;;;;;17.22;63.63;101222.00;4995039;27;98805;-66